createdAt,value
2023-03-19T00:00:30.422Z,8.18
2023-03-19T00:02:58.316Z,9.23
2023-03-19T00:05:26.014Z,7.50
2023-03-19T00:07:53.529Z,9.88
2023-03-19T00:10:21.405Z,6.90
2023-03-19T00:12:48.903Z,8.68
2023-03-19T00:15:16.447Z,10.63
2023-03-19T00:17:44.236Z,6.95
2023-03-19T00:20:12.145Z,7.47
2023-03-19T00:22:40.120Z,8.27
2023-03-19T00:25:08.626Z,8.23
2023-03-19T00:27:37.440Z,9.05
2023-03-19T00:30:06.415Z,7.55
2023-03-19T00:32:35.752Z,6.22
2023-03-19T00:35:06.232Z,7.00
2023-03-19T00:37:34.557Z,7.43
2023-03-19T00:40:02.319Z,6.82
2023-03-19T00:42:31.422Z,9.60
2023-03-19T00:44:59.290Z,7.45
2023-03-19T00:47:27.794Z,7.72
2023-03-19T00:49:55.788Z,6.80
2023-03-19T00:52:23.564Z,7.75
2023-03-19T00:54:51.150Z,8.65
2023-03-19T00:57:19.569Z,6.53
2023-03-19T00:59:47.344Z,6.10
2023-03-19T01:02:14.922Z,6.80
2023-03-19T01:04:42.482Z,6.47
2023-03-19T01:07:11.367Z,8.02
2023-03-19T01:09:39.547Z,6.82
2023-03-19T01:12:07.815Z,8.93
2023-03-19T01:14:35.651Z,6.78
2023-03-19T01:17:03.456Z,9.20
2023-03-19T01:19:30.931Z,9.48
2023-03-19T01:21:58.627Z,6.57
2023-03-19T01:24:30.220Z,6.43
2023-03-19T01:26:57.866Z,6.95
2023-03-19T01:29:26.081Z,9.98
2023-03-19T01:31:55.993Z,7.87
2023-03-19T01:34:24.221Z,7.90
2023-03-19T01:36:52.687Z,6.00
2023-03-19T01:39:20.676Z,6.90
2023-03-19T01:41:48.107Z,6.70
2023-03-19T01:44:26.743Z,6.18
2023-03-19T01:46:54.733Z,7.60
2023-03-19T01:49:23.928Z,6.30
2023-03-19T01:51:52.120Z,7.40
2023-03-19T01:54:21.939Z,8.68
2023-03-19T01:56:53.181Z,5.85
2023-03-19T01:59:30.200Z,11.30
2023-03-19T02:01:58.716Z,9.05
2023-03-19T02:04:27.223Z,6.97
2023-03-19T02:06:55.853Z,6.30
2023-03-19T02:09:24.233Z,7.75
2023-03-19T02:11:51.954Z,6.75
2023-03-19T02:14:19.406Z,8.02
2023-03-19T02:16:47.036Z,6.28
2023-03-19T02:19:22.442Z,6.57
2023-03-19T02:21:49.954Z,7.87
2023-03-19T02:24:25.934Z,7.22
2023-03-19T02:26:54.453Z,5.00
2023-03-19T02:29:22.229Z,8.20
2023-03-19T02:31:49.924Z,6.78
2023-03-19T02:34:20.402Z,6.37
2023-03-19T02:36:52.659Z,5.87
2023-03-19T02:39:26.444Z,7.78
2023-03-19T02:41:54.165Z,6.82
2023-03-19T02:44:22.023Z,6.37
2023-03-19T02:46:49.862Z,7.10
2023-03-19T02:49:17.761Z,8.65
2023-03-19T02:51:45.333Z,6.47
2023-03-19T02:54:12.782Z,6.10
2023-03-19T02:56:40.550Z,6.50
2023-03-19T02:59:07.999Z,40.30
2023-03-19T03:01:35.804Z,5.87
2023-03-19T03:04:04.965Z,6.62
2023-03-19T03:06:32.536Z,5.35
2023-03-19T03:11:30.151Z,8.85
2023-03-19T03:13:57.773Z,8.32
2023-03-19T03:16:25.568Z,9.95
2023-03-19T03:18:54.060Z,9.20
2023-03-19T03:21:22.597Z,11.18
2023-03-19T03:23:51.210Z,8.07
2023-03-19T03:26:19.049Z,8.15
2023-03-19T03:28:46.672Z,7.78
2023-03-19T03:31:14.522Z,8.55
2023-03-19T03:33:43.398Z,7.85
2023-03-19T03:36:10.838Z,5.90
2023-03-19T03:38:38.746Z,7.05
2023-03-19T03:41:06.663Z,5.50
2023-03-19T03:43:34.175Z,7.90
2023-03-19T03:46:03.197Z,6.05
2023-03-19T03:48:31.125Z,6.07
2023-03-19T03:50:58.618Z,5.50
2023-03-19T03:53:26.258Z,5.78
2023-03-19T03:55:54.082Z,5.57
2023-03-19T03:58:21.700Z,7.45
2023-03-19T04:00:49.261Z,5.20
2023-03-19T04:03:17.517Z,9.32
2023-03-19T04:05:45.460Z,5.90
2023-03-19T04:08:13.070Z,5.62
2023-03-19T04:10:42.393Z,7.70
2023-03-19T04:13:10.478Z,5.72
2023-03-19T04:15:38.636Z,5.72
2023-03-19T04:18:06.467Z,5.93
2023-03-19T04:20:34.182Z,6.22
2023-03-19T04:23:02.192Z,5.40
2023-03-19T04:25:30.499Z,4.95
2023-03-19T04:27:58.533Z,7.07
2023-03-19T04:30:26.425Z,5.00
2023-03-19T04:32:54.211Z,4.87
2023-03-19T04:35:22.871Z,5.85
2023-03-19T04:37:50.436Z,9.82
2023-03-19T04:40:19.406Z,7.43
2023-03-19T04:42:47.088Z,9.45
2023-03-19T04:45:14.830Z,5.87
2023-03-19T04:47:42.735Z,6.43
2023-03-19T04:50:10.664Z,6.55
2023-03-19T04:52:38.302Z,8.02
2023-03-19T04:55:06.944Z,8.23
2023-03-19T04:57:35.797Z,8.43
2023-03-19T05:00:03.643Z,9.32
2023-03-19T05:02:33.671Z,7.05
2023-03-19T05:05:01.304Z,7.75
2023-03-19T05:07:28.885Z,7.62
2023-03-19T05:09:57.770Z,11.68
2023-03-19T05:12:26.035Z,8.52
2023-03-19T05:14:54.855Z,9.03
2023-03-19T05:17:22.623Z,7.15
2023-03-19T05:19:50.316Z,9.50
2023-03-19T05:22:18.064Z,9.63
2023-03-19T05:24:46.456Z,7.65
2023-03-19T05:27:14.093Z,6.93
2023-03-19T05:29:42.577Z,6.97
2023-03-19T05:32:11.138Z,7.57
2023-03-19T05:34:39.216Z,5.97
2023-03-19T05:37:07.237Z,7.57
2023-03-19T05:39:36.382Z,5.50
2023-03-19T05:42:05.427Z,7.62
2023-03-19T05:44:33.228Z,7.57
2023-03-19T05:47:01.383Z,5.47
2023-03-19T05:49:29.570Z,6.93
2023-03-19T05:51:58.263Z,6.82
2023-03-19T05:54:26.151Z,6.68
2023-03-19T05:56:54.387Z,5.93
2023-03-19T05:59:22.344Z,7.65
2023-03-19T06:01:50.700Z,6.85
2023-03-19T06:04:18.701Z,6.03
2023-03-19T06:06:47.543Z,5.80
2023-03-19T06:09:15.355Z,8.80
2023-03-19T06:11:43.238Z,5.72
2023-03-19T06:14:18.295Z,7.47
2023-03-19T06:16:48.885Z,6.12
2023-03-19T06:19:16.512Z,7.47
2023-03-19T06:21:44.039Z,6.43
2023-03-19T06:24:11.840Z,8.00
2023-03-19T06:26:39.333Z,6.93
2023-03-19T06:29:07.717Z,5.95
2023-03-19T06:31:35.931Z,8.10
2023-03-19T06:34:03.583Z,7.15
2023-03-19T06:36:31.896Z,7.53
2023-03-19T06:39:00.187Z,4.87
2023-03-19T06:41:27.952Z,6.57
2023-03-19T06:43:58.366Z,5.18
2023-03-19T06:46:26.172Z,5.55
2023-03-19T06:48:54.199Z,5.03
2023-03-19T06:51:21.756Z,5.35
2023-03-19T06:53:49.461Z,5.35
2023-03-19T06:56:16.986Z,6.25
2023-03-19T06:58:44.404Z,6.80
2023-03-19T07:01:12.154Z,8.95
2023-03-19T07:03:39.654Z,7.10
2023-03-19T07:06:07.333Z,5.43
2023-03-19T07:08:35.252Z,4.80
2023-03-19T07:11:06.456Z,6.93
2023-03-19T07:13:34.022Z,6.05
2023-03-19T07:16:01.785Z,5.47
2023-03-19T07:18:29.221Z,4.53
2023-03-19T07:20:56.708Z,5.10
2023-03-19T07:23:24.459Z,5.50
2023-03-19T07:25:51.881Z,5.72
2023-03-19T07:28:19.321Z,7.28
2023-03-19T07:30:47.023Z,4.62
2023-03-19T07:33:14.571Z,6.10
2023-03-19T07:35:42.092Z,5.57
2023-03-19T07:38:09.876Z,8.07
2023-03-19T07:40:38.823Z,5.07
2023-03-19T07:45:34.948Z,5.12
2023-03-19T07:48:06.882Z,4.60
2023-03-19T07:50:35.088Z,6.45
2023-03-19T07:53:03.724Z,4.78
2023-03-19T07:55:31.152Z,5.80
2023-03-19T07:57:58.887Z,5.57
2023-03-19T08:00:26.327Z,4.95
2023-03-19T08:02:54.049Z,4.93
2023-03-19T08:05:21.538Z,8.90
2023-03-19T08:07:50.490Z,4.75
2023-03-19T08:10:18.359Z,5.27
2023-03-19T08:12:45.977Z,4.75
2023-03-19T08:15:13.474Z,5.70
2023-03-19T08:17:41.172Z,4.87
2023-03-19T08:20:10.697Z,7.95
2023-03-19T08:22:38.595Z,6.50
2023-03-19T08:25:06.956Z,7.22
2023-03-19T08:27:35.780Z,5.10
2023-03-19T08:30:04.368Z,8.70
2023-03-19T08:32:32.189Z,8.02
2023-03-19T08:35:00.380Z,6.05
2023-03-19T08:37:27.853Z,4.85
2023-03-19T08:39:55.657Z,5.78
2023-03-19T08:42:23.319Z,5.00
2023-03-19T08:44:51.011Z,4.55
2023-03-19T08:47:18.755Z,7.80
2023-03-19T08:49:46.425Z,6.75
2023-03-19T08:52:13.895Z,5.68
2023-03-19T08:54:41.624Z,4.53
2023-03-19T08:57:09.481Z,4.65
2023-03-19T08:59:37.437Z,4.95
2023-03-19T09:02:05.234Z,6.25
2023-03-19T09:04:37.394Z,5.95
2023-03-19T09:07:05.269Z,6.72
2023-03-19T09:09:32.946Z,7.43
2023-03-19T09:12:00.754Z,5.80
2023-03-19T09:14:28.441Z,5.25
2023-03-19T09:16:55.956Z,6.62
2023-03-19T09:19:23.784Z,9.45
2023-03-19T09:21:51.679Z,7.20
2023-03-19T09:24:19.164Z,5.20
2023-03-19T09:26:46.798Z,5.50
2023-03-19T09:29:14.530Z,4.65
2023-03-19T09:31:42.067Z,7.60
2023-03-19T09:34:09.535Z,5.82
2023-03-19T09:36:37.881Z,7.47
2023-03-19T09:39:05.969Z,4.90
2023-03-19T09:42:10.569Z,6.32
2023-03-19T09:44:39.600Z,5.35
2023-03-19T09:47:27.101Z,7.28
2023-03-19T09:49:59.673Z,10.18
2023-03-19T09:52:49.584Z,7.62
2023-03-19T09:58:11.280Z,10.15
2023-03-19T10:00:39.042Z,9.20
2023-03-19T10:03:15.702Z,5.10
2023-03-19T10:06:10.784Z,7.12
2023-03-19T10:09:16.354Z,8.40
2023-03-19T10:11:59.558Z,5.12
2023-03-19T10:14:45.368Z,6.40
2023-03-19T10:17:21.066Z,4.47
2023-03-19T10:19:55.346Z,6.37
2023-03-19T10:22:26.342Z,3.92
2023-03-19T10:24:54.144Z,5.40
2023-03-19T10:27:22.538Z,4.55
2023-03-19T10:29:49.966Z,5.28
2023-03-19T10:32:21.475Z,4.95
2023-03-19T10:34:50.474Z,5.00
2023-03-19T10:37:22.593Z,5.90
2023-03-19T10:39:51.379Z,4.68
2023-03-19T10:42:47.194Z,10.07
2023-03-19T10:45:27.885Z,6.20
2023-03-19T10:47:59.680Z,11.38
2023-03-19T10:50:50.786Z,4.20
2023-03-19T10:53:18.340Z,5.15
2023-03-19T10:56:03.480Z,5.15
2023-03-19T10:58:32.265Z,4.10
2023-03-19T11:01:04.030Z,6.20
2023-03-19T11:03:36.746Z,4.57
2023-03-19T11:06:05.190Z,5.65
2023-03-19T11:08:36.203Z,6.97
2023-03-19T11:11:04.168Z,4.95
2023-03-19T11:13:34.887Z,5.15
2023-03-19T11:16:02.647Z,7.20
2023-03-19T11:18:31.815Z,4.65
2023-03-19T11:21:06.911Z,5.07
2023-03-19T11:23:40.157Z,6.07
2023-03-19T11:26:07.796Z,6.68
2023-03-19T11:28:36.809Z,5.28
2023-03-19T11:31:25.077Z,6.25
2023-03-19T11:34:00.900Z,3.78
2023-03-19T11:36:33.884Z,4.93
2023-03-19T11:39:41.293Z,4.68
2023-03-19T11:42:11.959Z,5.68
2023-03-19T11:45:16.707Z,5.25
2023-03-19T11:47:48.861Z,6.53
2023-03-19T11:50:38.480Z,4.62
2023-03-19T11:53:35.487Z,8.23
2023-03-19T11:56:27.779Z,4.47
2023-03-19T11:59:05.411Z,4.75
2023-03-19T12:01:48.589Z,6.87
2023-03-19T12:04:47.411Z,3.78
2023-03-19T12:07:29.871Z,4.28
2023-03-19T12:10:16.746Z,3.85
2023-03-19T12:12:54.059Z,4.40
2023-03-19T12:15:43.271Z,4.10
2023-03-19T12:18:37.372Z,4.72
2023-03-19T12:21:14.285Z,4.37
2023-03-19T12:24:15.530Z,3.72
2023-03-19T12:27:08.364Z,5.32
2023-03-19T12:29:41.771Z,3.62
2023-03-19T12:32:09.773Z,4.32
2023-03-19T12:34:55.335Z,4.78
2023-03-19T12:37:40.819Z,4.15
2023-03-19T12:40:22.977Z,5.32
2023-03-19T12:42:51.925Z,4.95
2023-03-19T12:45:38.643Z,5.70
2023-03-19T12:48:12.923Z,3.87
2023-03-19T12:50:41.715Z,6.95
2023-03-19T12:53:15.595Z,4.72
2023-03-19T12:55:50.964Z,3.83
2023-03-19T12:58:47.909Z,3.20
2023-03-19T13:01:19.235Z,5.25
2023-03-19T13:04:03.372Z,3.92
2023-03-19T13:07:04.683Z,4.05
2023-03-19T13:09:43.368Z,3.40
2023-03-19T13:12:15.232Z,4.82
2023-03-19T13:15:08.101Z,3.67
2023-03-19T13:18:14.129Z,3.78
2023-03-19T13:21:05.955Z,3.67
2023-03-19T13:23:35.067Z,3.55
2023-03-19T13:26:04.785Z,3.87
2023-03-19T13:28:33.816Z,6.97
2023-03-19T13:31:06.063Z,6.07
2023-03-19T13:33:35.200Z,7.68
2023-03-19T13:36:05.409Z,10.43
2023-03-19T13:38:35.476Z,7.25
2023-03-19T13:41:03.615Z,6.47
2023-03-19T13:43:31.793Z,7.68
2023-03-19T13:46:17.463Z,13.10
2023-03-19T13:48:45.472Z,6.07
2023-03-19T13:51:12.906Z,6.95
2023-03-19T13:53:42.425Z,5.12
2023-03-19T13:56:28.725Z,7.32
2023-03-19T13:59:15.574Z,5.07
2023-03-19T14:01:47.662Z,7.97
2023-03-19T14:04:35.373Z,4.60
2023-03-19T14:07:13.366Z,8.27
2023-03-19T14:10:11.392Z,7.35
2023-03-19T14:12:40.511Z,7.22
2023-03-19T14:15:08.251Z,5.65
2023-03-19T14:17:42.284Z,6.40
2023-03-19T14:20:10.265Z,7.45
2023-03-19T14:22:38.477Z,6.90
2023-03-19T14:25:17.141Z,5.82
2023-03-19T14:27:50.335Z,5.25
2023-03-19T14:30:39.279Z,5.15
2023-03-19T14:33:12.958Z,5.95
2023-03-19T14:35:42.060Z,8.75
2023-03-19T14:38:25.298Z,6.37
2023-03-19T14:40:52.940Z,5.93
2023-03-19T14:43:45.068Z,5.32
2023-03-19T14:46:31.146Z,6.85
2023-03-19T14:49:27.952Z,5.53
2023-03-19T14:52:24.311Z,7.28
2023-03-19T14:54:58.368Z,4.82
2023-03-19T14:57:27.682Z,7.80
2023-03-19T14:59:56.308Z,5.87
2023-03-19T15:02:33.233Z,6.53
2023-03-19T15:05:05.184Z,5.22
2023-03-19T15:07:41.056Z,8.82
2023-03-19T15:10:15.363Z,5.18
2023-03-19T15:13:05.099Z,6.12
2023-03-19T15:18:11.332Z,5.30
2023-03-19T15:20:43.967Z,7.03
2023-03-19T15:23:25.890Z,7.35
2023-03-19T15:26:01.531Z,5.72
2023-03-19T15:28:37.574Z,6.72
2023-03-19T15:31:28.535Z,12.10
2023-03-19T15:33:58.750Z,7.40
2023-03-19T15:36:34.478Z,6.20
2023-03-19T15:39:08.719Z,6.82
2023-03-19T15:41:40.927Z,6.00
2023-03-19T15:44:11.167Z,8.32
2023-03-19T15:46:42.013Z,5.45
2023-03-19T15:49:36.540Z,6.75
2023-03-19T15:52:07.403Z,8.02
2023-03-19T15:54:37.358Z,8.25
2023-03-19T15:57:07.355Z,5.47
2023-03-19T15:59:35.917Z,5.32
2023-03-19T16:02:11.234Z,8.13
2023-03-19T16:05:06.721Z,7.55
2023-03-19T16:07:32.073Z,5.85
2023-03-19T16:10:02.081Z,7.12
2023-03-19T16:12:40.542Z,5.78
2023-03-19T16:15:45.467Z,5.93
2023-03-19T16:18:16.815Z,9.70
2023-03-19T16:21:09.853Z,6.68
2023-03-19T16:23:43.187Z,7.72
2023-03-19T16:26:24.435Z,8.02
2023-03-19T16:29:26.844Z,7.97
2023-03-19T16:32:04.873Z,10.82
2023-03-19T16:34:47.376Z,9.63
2023-03-19T16:37:38.219Z,7.55
2023-03-19T16:40:12.736Z,6.85
2023-03-19T16:42:53.094Z,7.70
2023-03-19T16:45:31.587Z,7.45
2023-03-19T16:48:03.999Z,9.82
2023-03-19T16:50:37.992Z,10.57
2023-03-19T16:53:42.682Z,9.27
2023-03-19T16:56:13.452Z,7.65
2023-03-19T16:58:45.662Z,8.05
2023-03-19T17:01:24.356Z,8.15
2023-03-19T17:03:53.645Z,7.50
2023-03-19T17:06:22.438Z,8.70
2023-03-19T17:08:51.214Z,8.45
2023-03-19T17:11:31.539Z,13.88
2023-03-19T17:14:00.530Z,11.73
2023-03-19T17:16:30.953Z,14.20
2023-03-19T17:19:00.033Z,10.60
2023-03-19T17:21:33.093Z,12.95
2023-03-19T17:24:19.636Z,11.65
2023-03-19T17:26:48.650Z,10.23
2023-03-19T17:29:17.050Z,14.43
2023-03-19T17:31:46.001Z,12.88
2023-03-19T17:34:23.244Z,14.77
2023-03-19T17:37:03.453Z,11.98
2023-03-19T17:39:35.341Z,12.05
2023-03-19T17:42:04.211Z,13.73
2023-03-19T17:44:33.040Z,13.10
2023-03-19T17:47:02.918Z,13.25
2023-03-19T17:49:33.340Z,14.68
2023-03-19T17:52:02.910Z,13.55
2023-03-19T17:54:33.415Z,13.05
2023-03-19T17:57:04.838Z,14.98
2023-03-19T17:59:33.807Z,14.32
2023-03-19T18:02:04.420Z,14.87
2023-03-19T18:04:36.115Z,14.73
2023-03-19T18:07:04.939Z,12.80
2023-03-19T18:09:36.425Z,15.15
2023-03-19T18:12:05.735Z,14.80
2023-03-19T18:14:34.833Z,16.70
2023-03-19T18:17:03.921Z,15.15
2023-03-19T18:19:37.318Z,15.48
2023-03-19T18:22:22.120Z,14.48
2023-03-19T18:24:52.865Z,16.35
2023-03-19T18:27:25.565Z,15.25
2023-03-19T18:29:54.679Z,14.00
2023-03-19T18:34:55.576Z,16.45
2023-03-19T18:37:25.999Z,16.67
2023-03-19T18:39:55.791Z,18.23
2023-03-19T18:42:25.819Z,16.50
2023-03-19T18:44:53.988Z,18.27
2023-03-19T18:47:24.230Z,19.10
2023-03-19T18:49:54.586Z,17.52
2023-03-19T18:52:26.287Z,17.37
2023-03-19T18:54:56.630Z,17.62
2023-03-19T18:57:27.273Z,17.20
2023-03-19T18:59:58.259Z,15.15
2023-03-19T19:02:37.651Z,15.98
2023-03-19T19:05:06.955Z,17.83
2023-03-19T19:07:37.315Z,19.67
2023-03-19T19:10:08.142Z,17.33
2023-03-19T19:12:38.654Z,16.58
2023-03-19T19:15:11.044Z,15.35
2023-03-19T19:17:42.340Z,18.73
2023-03-19T19:20:16.482Z,16.48
2023-03-19T19:22:48.093Z,15.60
2023-03-19T19:25:28.128Z,17.95
2023-03-19T19:28:04.666Z,15.63
2023-03-19T19:30:34.137Z,17.30
2023-03-19T19:33:05.192Z,15.82
2023-03-19T19:35:34.732Z,14.80
2023-03-19T19:38:05.088Z,16.77
2023-03-19T19:40:34.324Z,15.30
2023-03-19T19:43:06.468Z,15.63
2023-03-19T19:45:40.218Z,15.57
2023-03-19T19:48:15.350Z,14.45
2023-03-19T19:50:46.338Z,16.05
2023-03-19T19:53:16.472Z,14.82
2023-03-19T19:55:46.362Z,13.70
2023-03-19T19:58:22.308Z,13.65
2023-03-19T20:01:02.815Z,13.50
2023-03-19T20:03:33.888Z,12.75
2023-03-19T20:06:02.693Z,13.15
2023-03-19T20:08:33.213Z,16.95
2023-03-19T20:11:04.952Z,12.48
2023-03-19T20:13:38.690Z,12.80
2023-03-19T20:18:43.943Z,13.43
2023-03-19T20:21:14.597Z,16.87
2023-03-19T20:23:44.861Z,19.20
2023-03-19T20:26:18.606Z,15.75
2023-03-19T20:28:47.668Z,16.90
2023-03-19T20:31:31.362Z,14.73
2023-03-19T20:34:02.360Z,14.20
2023-03-19T20:36:34.804Z,14.57
2023-03-19T20:39:04.272Z,15.55
2023-03-19T20:41:33.854Z,15.70
2023-03-19T20:44:03.685Z,13.65
2023-03-19T20:46:33.776Z,15.18
2023-03-19T20:49:03.528Z,16.08
2023-03-19T20:51:34.777Z,16.70
2023-03-19T20:54:06.056Z,14.80
2023-03-19T20:56:38.124Z,12.52
2023-03-19T20:59:09.033Z,14.52
2023-03-19T21:01:37.831Z,15.55
2023-03-19T21:04:10.370Z,14.40
2023-03-19T21:06:52.978Z,15.80
2023-03-19T21:09:25.358Z,12.68
2023-03-19T21:11:54.657Z,15.48
2023-03-19T21:14:27.220Z,17.15
2023-03-19T21:16:56.859Z,13.98
2023-03-19T21:19:26.154Z,12.60
2023-03-19T21:21:55.016Z,13.75
2023-03-19T21:24:23.635Z,12.85
2023-03-19T21:26:52.272Z,13.02
2023-03-19T21:29:24.708Z,13.15
2023-03-19T21:31:56.025Z,14.35
2023-03-19T21:34:23.907Z,12.65
2023-03-19T21:36:52.080Z,14.68
2023-03-19T21:39:19.560Z,12.27
2023-03-19T21:41:48.064Z,14.50
2023-03-19T21:44:19.599Z,13.70
2023-03-19T21:46:47.865Z,12.10
2023-03-19T21:49:15.350Z,14.45
2023-03-19T21:51:44.123Z,13.07
2023-03-19T21:54:11.617Z,14.82
2023-03-19T21:56:40.748Z,13.43
2023-03-19T21:59:25.573Z,11.02
2023-03-19T22:01:52.998Z,12.70
2023-03-19T22:04:20.822Z,13.02
2023-03-19T22:06:49.170Z,13.30
2023-03-19T22:09:16.674Z,13.50
2023-03-19T22:11:46.108Z,12.35
2023-03-19T22:14:14.582Z,13.00
2023-03-19T22:16:42.444Z,12.68
2023-03-19T22:19:15.767Z,11.35
2023-03-19T22:21:43.193Z,11.68
2023-03-19T22:24:11.049Z,11.98
2023-03-19T22:26:39.582Z,13.38
2023-03-19T22:29:11.136Z,11.15
2023-03-19T22:31:38.881Z,10.88
2023-03-19T22:34:06.674Z,12.73
2023-03-19T22:36:34.105Z,12.63
2023-03-19T22:39:01.904Z,13.45
2023-03-19T22:41:34.153Z,12.88
2023-03-19T22:44:03.164Z,10.85
2023-03-19T22:46:31.206Z,11.20
2023-03-19T22:48:58.677Z,11.20
2023-03-19T22:51:27.356Z,12.52
2023-03-19T22:53:54.862Z,14.35
2023-03-19T22:56:22.554Z,9.80
2023-03-19T22:58:50.720Z,12.82
2023-03-19T23:01:21.289Z,10.57
2023-03-19T23:03:49.450Z,12.82
2023-03-19T23:06:29.308Z,14.63
2023-03-19T23:08:57.557Z,11.90
2023-03-19T23:11:25.587Z,13.68
2023-03-19T23:13:56.015Z,11.77
2023-03-19T23:16:24.944Z,12.30
2023-03-19T23:21:21.378Z,10.20
2023-03-19T23:23:49.686Z,10.35
2023-03-19T23:26:38.659Z,9.25
2023-03-19T23:29:06.575Z,9.73
2023-03-19T23:31:34.471Z,9.05
2023-03-19T23:34:02.189Z,9.80
2023-03-19T23:36:29.661Z,11.25
2023-03-19T23:38:57.604Z,12.20
2023-03-19T23:41:26.796Z,10.33
2023-03-19T23:43:54.920Z,10.02
2023-03-19T23:46:22.877Z,10.00
2023-03-19T23:48:50.719Z,7.95
2023-03-19T23:51:18.354Z,9.95
2023-03-19T23:53:46.358Z,9.38
2023-03-19T23:56:23.759Z,11.35
2023-03-19T23:58:51.970Z,8.82
